Warwick, Georgia
Current Conditions -  °F | °C
As of 6:55 AM on Thursday 23 Oct 2014 (Local Time) from KCKF Reporting Station
Clear Clear  
Wind Chill: 42°   Ceiling: Unl
Heat Index: 44°   Visibility: 10mi
Dew Point: 42°   Wind: 5mph
Humidity: 90%   Direction: 50°NE
Pressure: 30.11"   Gusts: NA
Location:  31.83°N, 83.92°W
Report Text: KCKF 231055Z AUTO 05004KT 10SM CLR 07/05 A3011 RMK AO2 T00680053
Loading
Personal Weather Stations






























Interactive Weather Map
Tropical Storm Tracking
New forecast layout! Learn more

10-Day Weather Forecast

Advertisements
Track Severe Weather on mobile